createdAt,value
2023-03-29T00:00:13.656Z,100
2023-03-29T00:01:35.428Z,100
2023-03-29T00:02:17.166Z,100
2023-03-29T00:03:19.147Z,100
2023-03-29T00:04:20.619Z,100
2023-03-29T00:05:22.319Z,100
2023-03-29T00:06:24.027Z,100
2023-03-29T00:07:25.773Z,100
2023-03-29T00:08:27.501Z,100
2023-03-29T00:09:29.230Z,100
2023-03-29T00:10:30.963Z,100
2023-03-29T00:11:32.734Z,100
2023-03-29T00:12:34.460Z,100
2023-03-29T00:13:36.186Z,100
2023-03-29T00:14:37.935Z,100
2023-03-29T00:15:39.634Z,100
2023-03-29T00:16:41.420Z,100
2023-03-29T00:17:43.160Z,100
2023-03-29T00:18:44.893Z,100
2023-03-29T00:19:46.565Z,100
2023-03-29T00:20:48.301Z,100
2023-03-29T00:21:50.049Z,100
2023-03-29T00:22:51.789Z,100
2023-03-29T00:23:53.539Z,100
2023-03-29T00:24:55.249Z,100
2023-03-29T00:25:57.008Z,100
2023-03-29T00:26:58.880Z,100
2023-03-29T00:28:00.437Z,100
2023-03-29T00:29:02.184Z,100
2023-03-29T00:30:03.916Z,100
2023-03-29T00:31:05.754Z,100
2023-03-29T00:32:07.381Z,100
2023-03-29T00:33:09.216Z,100
2023-03-29T00:34:10.861Z,100
2023-03-29T00:35:12.591Z,100
2023-03-29T00:36:14.321Z,100
2023-03-29T00:37:16.035Z,100
2023-03-29T00:38:17.784Z,100
2023-03-29T00:39:19.514Z,100
2023-03-29T00:40:21.261Z,100
2023-03-29T00:41:22.975Z,100
2023-03-29T00:42:24.730Z,100
2023-03-29T00:43:26.448Z,100
2023-03-29T00:44:28.195Z,100
2023-03-29T00:45:29.903Z,100
2023-03-29T00:46:31.698Z,100
2023-03-29T00:47:33.376Z,100
2023-03-29T00:48:35.135Z,100
2023-03-29T00:49:36.839Z,100
2023-03-29T00:50:38.577Z,100
2023-03-29T00:51:40.312Z,100
2023-03-29T00:52:42.031Z,100
2023-03-29T00:53:43.769Z,100
2023-03-29T00:54:45.517Z,100
2023-03-29T00:55:47.240Z,100
2023-03-29T00:56:49.003Z,100
2023-03-29T00:57:50.721Z,100
2023-03-29T00:58:52.440Z,100
2023-03-29T00:59:54.186Z,100
2023-03-29T01:00:55.927Z,100
2023-03-29T01:01:57.756Z,100
2023-03-29T01:02:59.525Z,100
2023-03-29T01:04:01.205Z,100
2023-03-29T01:05:02.851Z,100
2023-03-29T01:06:04.585Z,100
2023-03-29T01:07:06.430Z,100
2023-03-29T01:08:08.047Z,100
2023-03-29T01:09:09.768Z,100
2023-03-29T01:10:11.485Z,100
2023-03-29T01:11:13.226Z,100
2023-03-29T01:12:14.938Z,100
2023-03-29T01:13:16.666Z,100
2023-03-29T01:14:18.397Z,100
2023-03-29T01:15:20.138Z,100
2023-03-29T01:16:21.988Z,100
2023-03-29T01:17:23.589Z,100
2023-03-29T01:18:25.280Z,100
2023-03-29T01:19:26.994Z,100
2023-03-29T01:20:28.733Z,100
2023-03-29T01:21:30.468Z,100
2023-03-29T01:22:32.187Z,100
2023-03-29T01:23:33.934Z,100
2023-03-29T01:24:35.660Z,100
2023-03-29T01:25:37.403Z,100
2023-03-29T01:26:39.130Z,100
2023-03-29T01:27:40.873Z,100
2023-03-29T01:28:42.660Z,100
2023-03-29T01:29:44.343Z,100
2023-03-29T01:30:46.073Z,100
2023-03-29T01:31:47.837Z,100
2023-03-29T01:32:49.562Z,100
2023-03-29T01:33:51.268Z,100
2023-03-29T01:34:53.002Z,100
2023-03-29T01:35:54.777Z,100
2023-03-29T01:36:56.481Z,100
2023-03-29T01:37:58.228Z,100
2023-03-29T01:38:59.943Z,100
2023-03-29T01:40:01.664Z,100
2023-03-29T01:41:03.876Z,100
2023-03-29T01:42:05.130Z,100
2023-03-29T01:43:06.866Z,100
2023-03-29T01:44:08.638Z,100
2023-03-29T01:45:10.337Z,100
2023-03-29T01:46:12.106Z,100
2023-03-29T01:47:13.826Z,100
2023-03-29T01:48:15.543Z,100
2023-03-29T01:49:17.272Z,100
2023-03-29T01:50:19.012Z,100
2023-03-29T01:51:20.768Z,100
2023-03-29T01:52:22.458Z,100
2023-03-29T01:53:24.218Z,100
2023-03-29T01:54:25.947Z,100
2023-03-29T01:55:27.678Z,100
2023-03-29T01:56:29.409Z,100
2023-03-29T01:57:31.143Z,100
2023-03-29T01:58:32.882Z,100
2023-03-29T01:59:34.623Z,100
2023-03-29T02:00:36.357Z,100
2023-03-29T02:01:38.162Z,100
2023-03-29T02:02:39.870Z,100
2023-03-29T02:03:41.592Z,100
2023-03-29T02:04:43.291Z,100
2023-03-29T02:05:45.053Z,100
2023-03-29T02:06:46.758Z,100
2023-03-29T02:07:48.480Z,100
2023-03-29T02:08:50.224Z,100
2023-03-29T02:09:51.946Z,100
2023-03-29T02:10:53.676Z,100
2023-03-29T02:11:55.488Z,100
2023-03-29T02:12:57.137Z,100
2023-03-29T02:13:58.891Z,100
2023-03-29T02:15:00.622Z,100
2023-03-29T02:16:02.383Z,100
2023-03-29T02:17:04.082Z,100
2023-03-29T02:18:05.850Z,100
2023-03-29T02:19:07.550Z,100
2023-03-29T02:20:09.281Z,100
2023-03-29T02:21:11.009Z,100
2023-03-29T02:22:12.748Z,100
2023-03-29T02:23:14.585Z,100
2023-03-29T02:24:16.211Z,100
2023-03-29T02:25:17.946Z,100
2023-03-29T02:26:19.678Z,100
2023-03-29T02:27:21.401Z,100
2023-03-29T02:28:23.148Z,100
2023-03-29T02:29:24.883Z,100
2023-03-29T02:30:26.625Z,100
2023-03-29T02:31:28.418Z,100
2023-03-29T02:32:30.138Z,100
2023-03-29T02:33:31.874Z,100
2023-03-29T02:34:33.560Z,100
2023-03-29T02:35:35.312Z,100
2023-03-29T02:36:37.025Z,100
2023-03-29T02:37:38.747Z,100
2023-03-29T02:38:40.512Z,100
2023-03-29T02:39:42.229Z,100
2023-03-29T02:40:43.952Z,100
2023-03-29T02:41:45.703Z,100
2023-03-29T02:42:47.428Z,100
2023-03-29T02:43:49.152Z,100
2023-03-29T02:44:50.914Z,100
2023-03-29T02:45:52.631Z,100
2023-03-29T02:46:54.418Z,100
2023-03-29T02:47:56.120Z,100
2023-03-29T02:48:57.834Z,100
2023-03-29T02:49:59.597Z,100
2023-03-29T02:51:01.572Z,100
2023-03-29T02:52:03.029Z,100
2023-03-29T02:53:04.780Z,100
2023-03-29T02:54:06.479Z,100
2023-03-29T02:55:08.213Z,100
2023-03-29T02:56:09.941Z,100
2023-03-29T02:57:11.713Z,100
2023-03-29T02:58:13.426Z,100
2023-03-29T02:59:15.162Z,100
2023-03-29T03:00:16.887Z,100
2023-03-29T03:01:18.620Z,100
2023-03-29T03:02:20.521Z,100
2023-03-29T03:03:22.188Z,100
2023-03-29T03:04:23.821Z,100
2023-03-29T03:05:25.552Z,100
2023-03-29T03:06:27.284Z,100
2023-03-29T03:07:29.000Z,100
2023-03-29T03:08:30.769Z,100
2023-03-29T03:09:32.482Z,100
2023-03-29T03:10:34.261Z,100
2023-03-29T03:11:35.963Z,100
2023-03-29T03:12:37.692Z,100
2023-03-29T03:13:39.433Z,100
2023-03-29T03:14:41.136Z,100
2023-03-29T03:15:42.968Z,100
2023-03-29T03:16:44.747Z,100
2023-03-29T03:17:46.423Z,100
2023-03-29T03:18:48.065Z,100
2023-03-29T03:19:49.846Z,100
2023-03-29T03:20:51.566Z,100
2023-03-29T03:21:53.398Z,100
2023-03-29T03:22:55.015Z,100
2023-03-29T03:23:56.753Z,100
2023-03-29T03:24:58.651Z,100
2023-03-29T03:26:00.240Z,100
2023-03-29T03:27:01.998Z,100
2023-03-29T03:28:03.683Z,100
2023-03-29T03:29:05.433Z,100
2023-03-29T03:30:07.178Z,100
2023-03-29T03:31:08.921Z,100
2023-03-29T03:32:10.640Z,100
2023-03-29T03:33:12.363Z,100
2023-03-29T03:34:14.105Z,100
2023-03-29T03:35:15.829Z,100
2023-03-29T03:36:17.705Z,100
2023-03-29T03:37:19.287Z,100
2023-03-29T03:38:21.014Z,100
2023-03-29T03:39:23.603Z,100
2023-03-29T03:40:27.227Z,100
2023-03-29T03:41:27.078Z,100
2023-03-29T03:42:28.806Z,100
2023-03-29T03:43:30.531Z,100
2023-03-29T03:44:32.277Z,100
2023-03-29T03:45:34.084Z,100
2023-03-29T03:46:35.735Z,100
2023-03-29T03:47:37.635Z,100
2023-03-29T03:48:39.218Z,100
2023-03-29T03:49:40.947Z,100
2023-03-29T03:50:42.661Z,100
2023-03-29T03:51:44.409Z,100
2023-03-29T03:52:46.172Z,100
2023-03-29T03:53:47.884Z,100
2023-03-29T03:54:49.593Z,100
2023-03-29T03:55:51.353Z,100
2023-03-29T03:56:53.123Z,100
2023-03-29T03:57:54.812Z,100
2023-03-29T03:58:56.536Z,100
2023-03-29T03:59:58.285Z,100
2023-03-29T04:01:00.313Z,100
2023-03-29T04:02:01.787Z,100
2023-03-29T04:03:03.624Z,100
2023-03-29T04:04:05.268Z,100
2023-03-29T04:05:06.925Z,100
2023-03-29T04:06:08.680Z,100
2023-03-29T04:07:10.412Z,100
2023-03-29T04:08:12.150Z,100
2023-03-29T04:09:13.868Z,100
2023-03-29T04:10:15.605Z,100
2023-03-29T04:11:17.330Z,100
2023-03-29T04:12:19.113Z,100
2023-03-29T04:13:20.809Z,100
2023-03-29T04:14:22.543Z,100
2023-03-29T04:15:24.304Z,100
2023-03-29T04:16:26.082Z,100
2023-03-29T04:17:27.768Z,100
2023-03-29T04:18:29.651Z,100
2023-03-29T04:19:31.199Z,100
2023-03-29T04:20:32.926Z,100
2023-03-29T04:21:34.683Z,100
2023-03-29T04:22:36.440Z,100
2023-03-29T04:23:38.129Z,100
2023-03-29T04:24:39.868Z,100
2023-03-29T04:25:41.728Z,100
2023-03-29T04:26:43.348Z,100
2023-03-29T04:27:45.089Z,100
2023-03-29T04:28:46.808Z,100
2023-03-29T04:29:48.555Z,100
2023-03-29T04:30:50.283Z,100
2023-03-29T04:31:52.148Z,100
2023-03-29T04:32:53.785Z,100
2023-03-29T04:33:56.335Z,100
2023-03-29T04:34:57.233Z,100
2023-03-29T04:35:59.003Z,100
2023-03-29T04:37:00.708Z,100
2023-03-29T04:38:02.434Z,100
2023-03-29T04:39:04.171Z,100
2023-03-29T04:40:05.902Z,100
2023-03-29T04:41:07.633Z,100
2023-03-29T04:42:09.357Z,100
2023-03-29T04:43:11.106Z,100
2023-03-29T04:44:12.823Z,100
2023-03-29T04:45:14.591Z,100
2023-03-29T04:46:16.518Z,100
2023-03-29T04:47:18.038Z,100
2023-03-29T04:48:19.750Z,100
2023-03-29T04:49:26.232Z,100
2023-03-29T04:50:28.432Z,100
2023-03-29T04:51:30.154Z,100
2023-03-29T04:52:32.765Z,100
2023-03-29T04:53:33.602Z,100
2023-03-29T04:54:35.302Z,100
2023-03-29T04:55:37.047Z,100
2023-03-29T04:56:38.830Z,100
2023-03-29T04:57:40.703Z,100
2023-03-29T04:58:42.277Z,100
2023-03-29T04:59:45.150Z,100
2023-03-29T05:00:46.947Z,100
2023-03-29T05:01:48.350Z,100
2023-03-29T05:02:50.704Z,100
2023-03-29T05:03:51.744Z,100
2023-03-29T05:04:54.073Z,100
2023-03-29T05:05:55.540Z,100
2023-03-29T05:06:58.841Z,100
2023-03-29T05:08:27.911Z,100
2023-03-29T05:09:31.027Z,100
2023-03-29T05:10:37.604Z,100
2023-03-29T05:11:39.138Z,100
2023-03-29T05:12:40.875Z,100
2023-03-29T05:13:42.625Z,100
2023-03-29T05:14:44.434Z,100
2023-03-29T05:15:50.627Z,100
2023-03-29T05:16:52.938Z,100
2023-03-29T05:17:59.392Z,100
2023-03-29T05:19:30.555Z,100
2023-03-29T05:20:41.753Z,100
2023-03-29T05:21:45.586Z,100
2023-03-29T05:22:46.242Z,100
2023-03-29T05:23:49.144Z,100
2023-03-29T05:25:19.516Z,100
2023-03-29T05:26:25.717Z,100
2023-03-29T05:27:28.107Z,100
2023-03-29T05:28:29.836Z,100
2023-03-29T05:29:35.764Z,100
2023-03-29T05:30:42.798Z,100
2023-03-29T05:31:46.841Z,100
2023-03-29T05:32:47.125Z,100
2023-03-29T05:33:49.945Z,100
2023-03-29T05:34:50.506Z,100
2023-03-29T05:35:51.609Z,100
2023-03-29T05:36:53.974Z,100
2023-03-29T05:37:55.735Z,100
2023-03-29T05:38:58.488Z,100
2023-03-29T05:40:05.666Z,100
2023-03-29T05:41:01.197Z,100
2023-03-29T05:42:02.677Z,100
2023-03-29T05:43:04.486Z,100
2023-03-29T05:44:08.058Z,100
2023-03-29T05:45:13.090Z,100
2023-03-29T05:46:13.773Z,100
2023-03-29T05:47:16.497Z,100
2023-03-29T05:48:18.204Z,100
2023-03-29T05:49:21.348Z,100
2023-03-29T05:50:21.707Z,100
2023-03-29T05:51:23.495Z,100
2023-03-29T05:52:25.796Z,100
2023-03-29T05:53:26.800Z,100
2023-03-29T05:54:34.037Z,100
2023-03-29T05:55:36.680Z,100
2023-03-29T05:56:37.173Z,100
2023-03-29T05:57:39.800Z,100
2023-03-29T05:58:40.600Z,100
2023-03-29T05:59:46.798Z,100
2023-03-29T06:00:49.209Z,100
2023-03-29T06:02:21.216Z,100
2023-03-29T06:03:25.156Z,100
2023-03-29T06:04:25.509Z,100
2023-03-29T06:05:27.106Z,100
2023-03-29T06:06:28.848Z,100
2023-03-29T06:07:30.528Z,100
2023-03-29T06:08:32.982Z,100
2023-03-29T06:09:34.051Z,100
2023-03-29T06:10:35.841Z,100
2023-03-29T06:11:37.483Z,100
2023-03-29T06:12:39.783Z,100
2023-03-29T06:13:41.035Z,100
2023-03-29T06:14:42.873Z,100
2023-03-29T06:15:44.412Z,100
2023-03-29T06:16:46.272Z,100
2023-03-29T06:17:47.939Z,100
2023-03-29T06:18:49.749Z,100
2023-03-29T06:19:51.386Z,100
2023-03-29T06:20:53.229Z,100
2023-03-29T06:21:54.840Z,100
2023-03-29T06:22:59.504Z,100
2023-03-29T06:24:03.498Z,100
2023-03-29T06:25:08.386Z,100
2023-03-29T06:26:10.141Z,100
2023-03-29T06:27:16.372Z,100
2023-03-29T06:28:18.744Z,100
2023-03-29T06:29:24.763Z,100
2023-03-29T06:30:27.465Z,100
2023-03-29T06:31:29.134Z,100
2023-03-29T06:32:30.859Z,100
2023-03-29T06:33:32.783Z,100
2023-03-29T06:34:33.424Z,100
2023-03-29T06:35:36.032Z,100
2023-03-29T06:36:42.233Z,100
2023-03-29T06:37:43.595Z,100
2023-03-29T06:38:46.431Z,100
2023-03-29T06:39:53.357Z,100
2023-03-29T06:40:59.571Z,100
2023-03-29T06:42:10.016Z,100
2023-03-29T06:43:03.588Z,100
2023-03-29T06:44:05.421Z,100
2023-03-29T06:45:17.538Z,100
2023-03-29T06:46:18.209Z,100
2023-03-29T06:47:22.093Z,100
2023-03-29T06:48:22.589Z,100
2023-03-29T06:49:24.346Z,100
2023-03-29T06:50:27.433Z,100
2023-03-29T06:51:27.842Z,100
2023-03-29T06:52:32.026Z,100
2023-03-29T06:53:51.927Z,100
2023-03-29T06:54:53.682Z,100
2023-03-29T06:55:55.379Z,100
2023-03-29T06:56:57.149Z,100
2023-03-29T06:58:04.717Z,100
2023-03-29T06:59:05.760Z,100
2023-03-29T07:00:08.869Z,100
2023-03-29T07:01:09.179Z,100
2023-03-29T07:02:15.486Z,100
2023-03-29T07:03:17.884Z,100
2023-03-29T07:04:19.661Z,100
2023-03-29T07:05:22.602Z,100
2023-03-29T07:06:27.499Z,100
2023-03-29T07:07:29.900Z,100
2023-03-29T07:08:31.796Z,100
2023-03-29T07:09:34.475Z,100
2023-03-29T07:10:35.101Z,100
2023-03-29T07:11:37.146Z,100
2023-03-29T07:12:38.613Z,100
2023-03-29T07:13:40.319Z,100
2023-03-29T07:14:44.086Z,100
2023-03-29T07:15:45.002Z,100
2023-03-29T07:16:45.609Z,100
2023-03-29T07:17:47.326Z,100
2023-03-29T07:18:54.601Z,100
2023-03-29T07:19:55.867Z,100
2023-03-29T07:20:58.792Z,100
2023-03-29T07:21:59.294Z,100
2023-03-29T07:23:06.341Z,100
2023-03-29T07:24:07.937Z,100
2023-03-29T07:25:09.695Z,100
2023-03-29T07:26:11.484Z,100
2023-03-29T07:27:14.000Z,100
2023-03-29T07:28:14.882Z,100
2023-03-29T07:29:16.980Z,100
2023-03-29T07:30:18.311Z,100
2023-03-29T07:31:20.502Z,100
2023-03-29T07:32:24.876Z,100
2023-03-29T07:33:28.719Z,100
2023-03-29T07:34:30.459Z,100
2023-03-29T07:35:32.131Z,100
2023-03-29T07:36:44.283Z,100
2023-03-29T07:37:45.871Z,100
2023-03-29T07:38:47.584Z,100
2023-03-29T07:39:49.305Z,100
2023-03-29T07:40:51.048Z,100
2023-03-29T07:41:52.805Z,100
2023-03-29T07:42:54.482Z,100
2023-03-29T07:43:55.478Z,100
2023-03-29T07:44:58.001Z,100
2023-03-29T07:45:59.762Z,100
2023-03-29T07:47:19.114Z,100
2023-03-29T07:48:28.970Z,100
2023-03-29T07:49:35.322Z,100
2023-03-29T07:50:37.616Z,100
2023-03-29T07:51:39.362Z,100
2023-03-29T07:52:41.049Z,100
2023-03-29T07:53:42.856Z,100
2023-03-29T07:54:44.614Z,100
2023-03-29T07:55:47.226Z,100
2023-03-29T07:56:48.104Z,100
2023-03-29T07:57:51.118Z,100
2023-03-29T07:58:51.507Z,100
2023-03-29T07:59:53.210Z,100
2023-03-29T08:00:56.225Z,100
2023-03-29T08:01:56.667Z,100
2023-03-29T08:03:01.141Z,100
2023-03-29T08:04:05.289Z,100
2023-03-29T08:05:07.048Z,100
2023-03-29T08:06:09.853Z,100
2023-03-29T08:07:10.987Z,100
2023-03-29T08:08:12.153Z,100
2023-03-29T08:09:15.328Z,100
2023-03-29T08:10:15.668Z,100
2023-03-29T08:11:21.893Z,100
2023-03-29T08:12:25.077Z,100
2023-03-29T08:13:25.973Z,100
2023-03-29T08:14:27.707Z,100
2023-03-29T08:15:29.418Z,100
2023-03-29T08:16:31.762Z,100
2023-03-29T08:17:33.045Z,100
2023-03-29T08:18:35.130Z,100
2023-03-29T08:19:37.407Z,100
2023-03-29T08:20:38.140Z,100
2023-03-29T08:21:41.844Z,100
2023-03-29T08:22:42.997Z,100
2023-03-29T08:23:43.329Z,100
2023-03-29T08:24:50.576Z,100
2023-03-29T08:25:51.937Z,100
2023-03-29T08:26:55.094Z,100
2023-03-29T08:27:59.461Z,100
2023-03-29T08:29:03.354Z,100
2023-03-29T08:30:04.035Z,100
2023-03-29T08:31:05.916Z,100
2023-03-29T08:32:07.508Z,100
2023-03-29T08:33:11.036Z,100
2023-03-29T08:34:13.206Z,100
2023-03-29T08:35:15.812Z,100
2023-03-29T08:36:18.870Z,100
2023-03-29T08:37:19.234Z,100
2023-03-29T08:38:21.040Z,100
2023-03-29T08:39:22.763Z,100
2023-03-29T08:40:24.450Z,100
2023-03-29T08:41:26.222Z,100
2023-03-29T08:42:34.013Z,100
2023-03-29T08:43:45.148Z,100
2023-03-29T08:44:48.192Z,100
2023-03-29T08:45:50.794Z,100
2023-03-29T08:46:56.305Z,100
2023-03-29T08:48:01.318Z,100
2023-03-29T08:49:08.218Z,100
2023-03-29T08:50:10.138Z,100
2023-03-29T08:51:12.614Z,100
2023-03-29T08:52:14.352Z,100
2023-03-29T08:53:16.106Z,100
2023-03-29T08:54:17.813Z,100
2023-03-29T08:55:22.107Z,100
2023-03-29T08:56:27.762Z,100
2023-03-29T08:57:29.350Z,100
2023-03-29T08:58:30.036Z,100
2023-03-29T08:59:41.913Z,100
2023-03-29T09:00:46.532Z,100
2023-03-29T09:01:49.590Z,100
2023-03-29T09:02:52.275Z,100
2023-03-29T09:03:53.120Z,100
2023-03-29T09:04:54.730Z,100
2023-03-29T09:05:57.527Z,100
2023-03-29T09:06:59.103Z,100
2023-03-29T09:07:59.927Z,100
2023-03-29T09:09:02.599Z,100
2023-03-29T09:10:04.323Z,100
2023-03-29T09:11:10.037Z,100
2023-03-29T09:12:12.879Z,100
2023-03-29T09:13:14.085Z,100
2023-03-29T09:14:14.355Z,100
2023-03-29T09:15:16.074Z,100
2023-03-29T09:16:19.248Z,100
2023-03-29T09:17:19.573Z,100
2023-03-29T09:18:21.351Z,100
2023-03-29T09:19:22.637Z,100
2023-03-29T09:20:26.265Z,100
2023-03-29T09:21:26.604Z,100
2023-03-29T09:22:28.367Z,100
2023-03-29T09:23:35.316Z,100
2023-03-29T09:24:38.940Z,100
2023-03-29T09:25:50.767Z,100
2023-03-29T09:26:40.386Z,100
2023-03-29T09:27:47.669Z,100
2023-03-29T09:28:49.108Z,100
2023-03-29T09:29:51.681Z,100
2023-03-29T09:30:53.894Z,100
2023-03-29T09:31:54.240Z,100
2023-03-29T09:32:55.985Z,100
2023-03-29T09:33:58.648Z,100
2023-03-29T09:35:00.590Z,100
2023-03-29T09:36:07.034Z,100
2023-03-29T09:37:10.925Z,100
2023-03-29T09:38:14.242Z,100
2023-03-29T09:39:15.741Z,100
2023-03-29T09:40:18.388Z,100
2023-03-29T09:41:20.109Z,100
2023-03-29T09:42:23.216Z,100
2023-03-29T09:43:24.744Z,100
2023-03-29T09:44:30.861Z,100
2023-03-29T09:45:27.033Z,100
2023-03-29T09:46:33.172Z,100
2023-03-29T09:47:35.794Z,100
2023-03-29T09:48:37.308Z,100
2023-03-29T09:49:39.063Z,100
2023-03-29T09:50:43.345Z,100
2023-03-29T09:51:43.594Z,100
2023-03-29T09:52:54.729Z,100
2023-03-29T09:53:56.323Z,100
2023-03-29T09:55:02.650Z,100
2023-03-29T09:56:06.029Z,100
2023-03-29T09:57:06.705Z,100
2023-03-29T09:58:09.614Z,100
2023-03-29T09:59:10.189Z,100
2023-03-29T10:00:11.968Z,100
2023-03-29T10:01:14.766Z,100
2023-03-29T10:02:15.349Z,100
2023-03-29T10:03:17.070Z,100
2023-03-29T10:04:18.916Z,100
2023-03-29T10:05:19.691Z,100
2023-03-29T10:06:21.671Z,100
2023-03-29T10:07:25.458Z,100
2023-03-29T10:08:26.786Z,100
2023-03-29T10:09:27.428Z,100
2023-03-29T10:10:29.240Z,100
2023-03-29T10:11:42.793Z,100
2023-03-29T10:12:42.922Z,100
2023-03-29T10:13:44.656Z,100
2023-03-29T10:14:45.460Z,100
2023-03-29T10:16:12.906Z,100
2023-03-29T10:17:23.963Z,100
2023-03-29T10:18:24.202Z,100
2023-03-29T10:19:24.845Z,100
2023-03-29T10:20:26.615Z,100
2023-03-29T10:21:28.313Z,100
2023-03-29T10:22:30.066Z,100
2023-03-29T10:23:32.975Z,100
2023-03-29T10:24:33.536Z,100
2023-03-29T10:25:36.541Z,100
2023-03-29T10:26:37.038Z,100
2023-03-29T10:27:40.036Z,100
2023-03-29T10:28:40.423Z,100
2023-03-29T10:29:46.269Z,100
2023-03-29T10:30:46.474Z,100
2023-03-29T10:31:46.723Z,100
2023-03-29T10:32:59.075Z,100
2023-03-29T10:33:59.417Z,100
2023-03-29T10:35:06.723Z,100
2023-03-29T10:36:08.092Z,100
2023-03-29T10:37:09.815Z,100
2023-03-29T10:38:15.785Z,100
2023-03-29T10:39:18.394Z,100
2023-03-29T10:40:20.106Z,100
2023-03-29T10:41:23.059Z,100
2023-03-29T10:42:23.537Z,100
2023-03-29T10:43:26.850Z,100
2023-03-29T10:44:27.043Z,100
2023-03-29T10:45:28.802Z,100
2023-03-29T10:46:30.629Z,100
2023-03-29T10:47:32.283Z,100
2023-03-29T10:48:33.124Z,100
2023-03-29T10:49:35.684Z,100
2023-03-29T10:50:37.384Z,100
2023-03-29T10:51:39.177Z,100
2023-03-29T10:52:40.912Z,100
2023-03-29T10:53:42.587Z,100
2023-03-29T10:54:45.271Z,100
2023-03-29T10:55:48.486Z,100
2023-03-29T10:56:52.337Z,100
2023-03-29T10:57:50.441Z,100
2023-03-29T10:58:53.362Z,100
2023-03-29T10:59:53.917Z,100
2023-03-29T11:00:55.709Z,100
2023-03-29T11:02:07.032Z,100
2023-03-29T11:03:10.376Z,100
2023-03-29T11:04:11.202Z,100
2023-03-29T11:05:18.941Z,100
2023-03-29T11:06:19.797Z,100
2023-03-29T11:07:21.515Z,100
2023-03-29T11:08:21.775Z,100
2023-03-29T11:09:24.966Z,100
2023-03-29T11:10:26.662Z,100
2023-03-29T11:11:29.258Z,100
2023-03-29T11:12:30.259Z,100
2023-03-29T11:13:31.866Z,100
2023-03-29T11:14:35.199Z,100
2023-03-29T11:15:35.364Z,100
2023-03-29T11:16:36.147Z,100
2023-03-29T11:17:38.871Z,100
2023-03-29T11:18:39.960Z,100
2023-03-29T11:19:42.318Z,100
2023-03-29T11:20:46.562Z,100
2023-03-29T11:21:50.861Z,100
2023-03-29T11:22:52.607Z,100
2023-03-29T11:23:54.384Z,100
2023-03-29T11:24:58.289Z,99.85
2023-03-29T11:26:02.953Z,100
2023-03-29T11:27:04.681Z,100
2023-03-29T11:28:11.630Z,100
2023-03-29T11:29:14.639Z,100
2023-03-29T11:30:15.108Z,96
2023-03-29T11:31:17.987Z,95.95
2023-03-29T11:32:18.670Z,94.29
2023-03-29T11:33:20.956Z,99.21
2023-03-29T11:34:23.457Z,98.69
2023-03-29T11:35:23.813Z,97.77
2023-03-29T11:36:26.902Z,99.11
2023-03-29T11:37:29.713Z,98.61
2023-03-29T11:38:34.163Z,97.5
2023-03-29T11:39:35.898Z,94.52
2023-03-29T11:40:37.620Z,95.73
2023-03-29T11:41:39.399Z,88.87
2023-03-29T11:42:41.057Z,93.38
2023-03-29T11:43:43.992Z,93.02
2023-03-29T11:44:44.509Z,90.1
2023-03-29T11:45:46.268Z,88.94
2023-03-29T11:46:49.313Z,90.62
2023-03-29T11:47:49.746Z,92.7
2023-03-29T11:48:51.402Z,93.19
2023-03-29T11:49:54.216Z,95.48
2023-03-29T11:50:55.993Z,94.37
2023-03-29T11:51:56.620Z,95.75
2023-03-29T11:52:58.426Z,92.53
2023-03-29T11:54:00.152Z,94.81
2023-03-29T11:55:01.813Z,94.45
2023-03-29T11:56:03.558Z,95.35
2023-03-29T11:57:05.420Z,96.38
2023-03-29T11:58:07.051Z,96.97
2023-03-29T11:59:08.775Z,98.47
2023-03-29T12:00:15.855Z,100
2023-03-29T12:01:17.417Z,100
2023-03-29T12:02:19.155Z,100
2023-03-29T12:03:21.063Z,100
2023-03-29T12:04:22.773Z,100
2023-03-29T12:05:34.636Z,100
2023-03-29T12:06:37.825Z,100
2023-03-29T12:07:38.626Z,100
2023-03-29T12:08:42.321Z,100
2023-03-29T12:09:45.622Z,100
2023-03-29T12:10:48.413Z,100
2023-03-29T12:11:54.461Z,100
2023-03-29T12:13:01.455Z,100
2023-03-29T12:14:03.994Z,100
2023-03-29T12:15:05.630Z,100
2023-03-29T12:16:35.195Z,100
2023-03-29T12:17:38.862Z,100
2023-03-29T12:18:39.382Z,100
2023-03-29T12:19:43.511Z,100
2023-03-29T12:20:42.849Z,100
2023-03-29T12:21:44.649Z,100
2023-03-29T12:22:46.710Z,100
2023-03-29T12:23:47.979Z,100
2023-03-29T12:24:51.762Z,100
2023-03-29T12:25:56.033Z,100
2023-03-29T12:26:59.772Z,100
2023-03-29T12:28:00.170Z,100
2023-03-29T12:29:02.868Z,100
2023-03-29T12:30:03.570Z,100
2023-03-29T12:31:07.297Z,98.61
2023-03-29T12:32:12.408Z,100
2023-03-29T12:33:15.953Z,100
2023-03-29T12:34:15.637Z,98.05
2023-03-29T12:35:17.366Z,99.8
2023-03-29T12:36:21.593Z,98.62
2023-03-29T12:37:26.041Z,100
2023-03-29T12:38:30.564Z,100
2023-03-29T12:39:29.600Z,100
2023-03-29T12:40:31.247Z,100
2023-03-29T12:41:38.847Z,100
2023-03-29T12:42:39.846Z,100
2023-03-29T12:43:42.875Z,99.89
2023-03-29T12:44:44.136Z,99.92
2023-03-29T12:45:46.417Z,96.73
2023-03-29T12:46:46.896Z,92.24
2023-03-29T12:47:48.637Z,96.01
2023-03-29T12:48:50.244Z,94.69
2023-03-29T12:49:52.263Z,93.25
2023-03-29T12:50:53.736Z,96.03
2023-03-29T12:51:55.468Z,95.04
2023-03-29T12:52:57.188Z,95.9
2023-03-29T12:53:58.969Z,95.03
2023-03-29T12:55:00.687Z,96.39
2023-03-29T12:56:07.689Z,92.07
2023-03-29T12:57:08.514Z,94.78
2023-03-29T12:58:14.685Z,98.47
2023-03-29T12:59:15.751Z,98.04
2023-03-29T13:00:17.577Z,97.67
2023-03-29T13:01:20.491Z,93.89
2023-03-29T13:02:21.356Z,94.27
2023-03-29T13:03:22.867Z,89.73
2023-03-29T13:04:24.490Z,94.52
2023-03-29T13:05:26.189Z,94.42
2023-03-29T13:06:29.114Z,93.79
2023-03-29T13:07:29.628Z,86.54
2023-03-29T13:08:31.461Z,87.48
2023-03-29T13:09:33.129Z,87.35
2023-03-29T13:10:34.807Z,86.6
2023-03-29T13:11:37.800Z,86.62
2023-03-29T13:12:38.249Z,86.05
2023-03-29T13:13:39.981Z,88.25
2023-03-29T13:14:50.630Z,85.36
2023-03-29T13:15:54.961Z,88.38
2023-03-29T13:17:08.628Z,87.11
2023-03-29T13:18:02.324Z,88.64
2023-03-29T13:19:04.036Z,81.66
2023-03-29T13:20:05.808Z,73.68
2023-03-29T13:21:07.490Z,79.28
2023-03-29T13:22:09.218Z,74.06
2023-03-29T13:23:10.274Z,76.43
2023-03-29T13:24:12.699Z,72.33
2023-03-29T13:25:14.459Z,74.48
2023-03-29T13:26:17.401Z,75.51
2023-03-29T13:27:17.901Z,76.1
2023-03-29T13:28:19.638Z,76.44
2023-03-29T13:29:21.371Z,70.96
2023-03-29T13:30:23.094Z,72.95
2023-03-29T13:31:24.906Z,77.51
2023-03-29T13:32:26.618Z,69.92
2023-03-29T13:33:28.353Z,69.55
2023-03-29T13:34:30.046Z,69.82
2023-03-29T13:35:31.805Z,73.09
2023-03-29T13:36:33.580Z,71.62
2023-03-29T13:37:35.232Z,71.21
2023-03-29T13:38:36.955Z,70.36
2023-03-29T13:39:38.668Z,72.69
2023-03-29T13:40:40.429Z,74.03
2023-03-29T13:41:42.130Z,72.37
2023-03-29T13:42:46.747Z,73.46
2023-03-29T13:43:45.571Z,70.23
2023-03-29T13:44:47.317Z,69.45
2023-03-29T13:45:48.217Z,74.9
2023-03-29T13:46:50.868Z,75.32
2023-03-29T13:48:04.541Z,77.31
2023-03-29T13:48:54.216Z,76.46
2023-03-29T13:49:55.943Z,75.06
2023-03-29T13:50:57.704Z,77.23
2023-03-29T13:51:59.391Z,73.68
2023-03-29T13:53:01.121Z,76.2
2023-03-29T13:54:02.826Z,79.55
2023-03-29T13:55:04.552Z,78.58
2023-03-29T13:56:05.391Z,75.31
2023-03-29T13:57:08.087Z,73.6
2023-03-29T13:58:09.742Z,72.31
2023-03-29T13:59:11.466Z,72.87
2023-03-29T14:00:13.248Z,73.05
2023-03-29T14:01:13.462Z,74.63
2023-03-29T14:02:16.738Z,76.08
2023-03-29T14:03:30.658Z,76.55
2023-03-29T14:04:35.928Z,74.34
2023-03-29T14:05:38.595Z,74.59
2023-03-29T14:06:48.885Z,76.82
2023-03-29T14:07:51.056Z,74.42
2023-03-29T14:08:57.558Z,74.13
2023-03-29T14:09:59.720Z,75.91
2023-03-29T14:11:01.456Z,75.01
2023-03-29T14:12:03.127Z,75.34
2023-03-29T14:13:04.881Z,77.42